sensor_id;sensor_type;location;lat;lon;timestamp;P1;durP1;ratioP1;P2;durP2;ratioP2
52320;SDS011;38261;54.090;13.382;2023-01-28T00:00:32;1.77;;;0.50;;
52320;SDS011;38261;54.090;13.382;2023-01-28T00:01:55;1.40;;;0.60;;
52320;SDS011;38261;54.090;13.382;2023-01-28T00:03:17;2.20;;;0.60;;
52320;SDS011;38261;54.090;13.382;2023-01-28T00:04:39;1.00;;;0.70;;
52320;SDS011;38261;54.090;13.382;2023-01-28T00:06:05;1.43;;;0.70;;
52320;SDS011;38261;54.090;13.382;2023-01-28T00:07:33;0.90;;;0.57;;
52320;SDS011;38261;54.090;13.382;2023-01-28T00:08:55;0.90;;;0.57;;
52320;SDS011;38261;54.090;13.382;2023-01-28T00:10:17;0.87;;;0.60;;
52320;SDS011;38261;54.090;13.382;2023-01-28T00:11:39;4.33;;;0.70;;
52320;SDS011;38261;54.090;13.382;2023-01-28T00:13:02;1.33;;;0.50;;
52320;SDS011;38261;54.090;13.382;2023-01-28T00:14:24;5.13;;;0.77;;
52320;SDS011;38261;54.090;13.382;2023-01-28T00:15:53;0.70;;;0.60;;
52320;SDS011;38261;54.090;13.382;2023-01-28T00:17:17;1.97;;;0.60;;
52320;SDS011;38261;54.090;13.382;2023-01-28T00:18:39;0.80;;;0.60;;
52320;SDS011;38261;54.090;13.382;2023-01-28T00:20:02;0.83;;;0.60;;
52320;SDS011;38261;54.090;13.382;2023-01-28T00:21:24;2.70;;;0.80;;
52320;SDS011;38261;54.090;13.382;2023-01-28T00:22:47;1.10;;;0.70;;
52320;SDS011;38261;54.090;13.382;2023-01-28T00:24:12;2.00;;;0.70;;
52320;SDS011;38261;54.090;13.382;2023-01-28T00:25:34;4.20;;;0.83;;
52320;SDS011;38261;54.090;13.382;2023-01-28T00:26:56;0.60;;;0.60;;
52320;SDS011;38261;54.090;13.382;2023-01-28T00:28:18;0.93;;;0.80;;
52320;SDS011;38261;54.090;13.382;2023-01-28T00:29:41;2.20;;;0.70;;
52320;SDS011;38261;54.090;13.382;2023-01-28T00:31:11;3.03;;;0.80;;
52320;SDS011;38261;54.090;13.382;2023-01-28T00:32:40;0.80;;;0.80;;
52320;SDS011;38261;54.090;13.382;2023-01-28T00:34:04;1.17;;;0.63;;
52320;SDS011;38261;54.090;13.382;2023-01-28T00:35:27;2.00;;;0.60;;
52320;SDS011;38261;54.090;13.382;2023-01-28T00:36:51;0.87;;;0.60;;
52320;SDS011;38261;54.090;13.382;2023-01-28T00:38:18;4.20;;;0.70;;
52320;SDS011;38261;54.090;13.382;2023-01-28T00:39:40;3.03;;;0.60;;
52320;SDS011;38261;54.090;13.382;2023-01-28T00:41:06;0.60;;;0.50;;
52320;SDS011;38261;54.090;13.382;2023-01-28T00:42:28;1.03;;;0.47;;
52320;SDS011;38261;54.090;13.382;2023-01-28T00:43:51;0.90;;;0.60;;
52320;SDS011;38261;54.090;13.382;2023-01-28T00:45:13;1.53;;;0.87;;
52320;SDS011;38261;54.090;13.382;2023-01-28T00:46:36;2.40;;;0.70;;
52320;SDS011;38261;54.090;13.382;2023-01-28T00:47:58;0.50;;;0.40;;
52320;SDS011;38261;54.090;13.382;2023-01-28T00:49:20;0.50;;;0.50;;
52320;SDS011;38261;54.090;13.382;2023-01-28T00:50:43;0.60;;;0.50;;
52320;SDS011;38261;54.090;13.382;2023-01-28T00:52:06;0.60;;;0.50;;
52320;SDS011;38261;54.090;13.382;2023-01-28T00:53:28;0.73;;;0.50;;
52320;SDS011;38261;54.090;13.382;2023-01-28T00:54:51;0.60;;;0.60;;
52320;SDS011;38261;54.090;13.382;2023-01-28T00:56:15;1.27;;;0.53;;
52320;SDS011;38261;54.090;13.382;2023-01-28T00:57:38;0.57;;;0.40;;
52320;SDS011;38261;54.090;13.382;2023-01-28T00:59:00;1.10;;;0.50;;
52320;SDS011;38261;54.090;13.382;2023-01-28T01:00:22;1.80;;;0.50;;
52320;SDS011;38261;54.090;13.382;2023-01-28T01:01:47;1.47;;;0.60;;
52320;SDS011;38261;54.090;13.382;2023-01-28T01:03:09;0.70;;;0.53;;
52320;SDS011;38261;54.090;13.382;2023-01-28T01:04:31;5.33;;;0.57;;
52320;SDS011;38261;54.090;13.382;2023-01-28T01:05:56;1.17;;;0.60;;
52320;SDS011;38261;54.090;13.382;2023-01-28T01:07:18;0.60;;;0.50;;
52320;SDS011;38261;54.090;13.382;2023-01-28T01:08:41;1.10;;;0.47;;
52320;SDS011;38261;54.090;13.382;2023-01-28T01:10:11;0.70;;;0.50;;
52320;SDS011;38261;54.090;13.382;2023-01-28T01:11:35;0.50;;;0.40;;
52320;SDS011;38261;54.090;13.382;2023-01-28T01:12:58;1.80;;;0.47;;
52320;SDS011;38261;54.090;13.382;2023-01-28T01:14:20;0.70;;;0.50;;
52320;SDS011;38261;54.090;13.382;2023-01-28T01:15:42;0.60;;;0.50;;
52320;SDS011;38261;54.090;13.382;2023-01-28T01:17:04;1.53;;;0.50;;
52320;SDS011;38261;54.090;13.382;2023-01-28T01:18:26;0.83;;;0.50;;
52320;SDS011;38261;54.090;13.382;2023-01-28T01:19:48;1.30;;;0.53;;
52320;SDS011;38261;54.090;13.382;2023-01-28T01:21:11;0.70;;;0.50;;
52320;SDS011;38261;54.090;13.382;2023-01-28T01:22:36;1.67;;;0.60;;
52320;SDS011;38261;54.090;13.382;2023-01-28T01:23:58;1.07;;;0.50;;
52320;SDS011;38261;54.090;13.382;2023-01-28T01:25:20;0.80;;;0.50;;
52320;SDS011;38261;54.090;13.382;2023-01-28T01:26:42;2.10;;;0.77;;
52320;SDS011;38261;54.090;13.382;2023-01-28T01:28:04;2.70;;;1.20;;
52320;SDS011;38261;54.090;13.382;2023-01-28T01:29:26;3.17;;;1.20;;
52320;SDS011;38261;54.090;13.382;2023-01-28T01:30:49;2.93;;;0.90;;
52320;SDS011;38261;54.090;13.382;2023-01-28T01:32:11;1.53;;;1.00;;
52320;SDS011;38261;54.090;13.382;2023-01-28T01:33:33;2.27;;;1.10;;
52320;SDS011;38261;54.090;13.382;2023-01-28T01:34:56;3.40;;;1.40;;
52320;SDS011;38261;54.090;13.382;2023-01-28T01:36:18;4.20;;;0.90;;
52320;SDS011;38261;54.090;13.382;2023-01-28T01:37:42;1.60;;;1.00;;
52320;SDS011;38261;54.090;13.382;2023-01-28T01:39:05;3.10;;;1.20;;
52320;SDS011;38261;54.090;13.382;2023-01-28T01:40:27;1.33;;;1.17;;
52320;SDS011;38261;54.090;13.382;2023-01-28T01:41:51;1.37;;;1.00;;
52320;SDS011;38261;54.090;13.382;2023-01-28T01:43:17;1.80;;;1.00;;
52320;SDS011;38261;54.090;13.382;2023-01-28T01:44:52;1.43;;;0.93;;
52320;SDS011;38261;54.090;13.382;2023-01-28T01:48:01;0.70;;;0.50;;
52320;SDS011;38261;54.090;13.382;2023-01-28T01:49:27;1.77;;;0.60;;
52320;SDS011;38261;54.090;13.382;2023-01-28T01:50:54;2.97;;;0.70;;
52320;SDS011;38261;54.090;13.382;2023-01-28T01:52:23;1.63;;;0.87;;
52320;SDS011;38261;54.090;13.382;2023-01-28T01:53:48;0.83;;;0.63;;
52320;SDS011;38261;54.090;13.382;2023-01-28T01:55:15;1.37;;;0.70;;
52320;SDS011;38261;54.090;13.382;2023-01-28T01:56:40;1.00;;;0.80;;
52320;SDS011;38261;54.090;13.382;2023-01-28T01:58:08;1.10;;;0.80;;
52320;SDS011;38261;54.090;13.382;2023-01-28T01:59:35;2.70;;;1.10;;
52320;SDS011;38261;54.090;13.382;2023-01-28T02:00:57;2.13;;;0.80;;
52320;SDS011;38261;54.090;13.382;2023-01-28T02:02:20;5.50;;;1.10;;
52320;SDS011;38261;54.090;13.382;2023-01-28T02:03:46;4.10;;;1.83;;
52320;SDS011;38261;54.090;13.382;2023-01-28T02:05:21;1.93;;;1.30;;
52320;SDS011;38261;54.090;13.382;2023-01-28T02:06:43;0.93;;;0.83;;
52320;SDS011;38261;54.090;13.382;2023-01-28T02:08:07;1.37;;;0.97;;
52320;SDS011;38261;54.090;13.382;2023-01-28T02:09:41;1.87;;;1.00;;
52320;SDS011;38261;54.090;13.382;2023-01-28T02:11:04;3.37;;;0.70;;
52320;SDS011;38261;54.090;13.382;2023-01-28T02:12:34;4.43;;;0.70;;
52320;SDS011;38261;54.090;13.382;2023-01-28T02:14:00;2.40;;;0.90;;
52320;SDS011;38261;54.090;13.382;2023-01-28T02:15:24;2.40;;;0.80;;
52320;SDS011;38261;54.090;13.382;2023-01-28T02:16:47;1.90;;;0.70;;
52320;SDS011;38261;54.090;13.382;2023-01-28T02:18:09;1.33;;;0.70;;
52320;SDS011;38261;54.090;13.382;2023-01-28T02:19:36;2.60;;;0.73;;
52320;SDS011;38261;54.090;13.382;2023-01-28T02:28:45;1.00;;;0.77;;
52320;SDS011;38261;54.090;13.382;2023-01-28T02:30:24;0.83;;;0.53;;
52320;SDS011;38261;54.090;13.382;2023-01-28T02:33:51;1.13;;;0.70;;
52320;SDS011;38261;54.090;13.382;2023-01-28T02:38:52;1.53;;;0.70;;
52320;SDS011;38261;54.090;13.382;2023-01-28T02:40:19;2.50;;;0.60;;
52320;SDS011;38261;54.090;13.382;2023-01-28T02:41:56;1.60;;;0.70;;
52320;SDS011;38261;54.090;13.382;2023-01-28T02:43:49;1.30;;;0.60;;
52320;SDS011;38261;54.090;13.382;2023-01-28T02:45:32;0.73;;;0.60;;
52320;SDS011;38261;54.090;13.382;2023-01-28T02:47:13;1.30;;;0.60;;
52320;SDS011;38261;54.090;13.382;2023-01-28T02:48:55;2.10;;;0.60;;
52320;SDS011;38261;54.090;13.382;2023-01-28T02:50:17;1.37;;;0.60;;
52320;SDS011;38261;54.090;13.382;2023-01-28T02:53:23;0.70;;;0.60;;
52320;SDS011;38261;54.090;13.382;2023-01-28T02:55:08;1.47;;;0.70;;
52320;SDS011;38261;54.090;13.382;2023-01-28T02:59:50;0.73;;;0.60;;
52320;SDS011;38261;54.090;13.382;2023-01-28T03:01:27;1.10;;;0.60;;
52320;SDS011;38261;54.090;13.382;2023-01-28T03:02:59;2.27;;;0.50;;
52320;SDS011;38261;54.090;13.382;2023-01-28T03:04:46;0.70;;;0.53;;
52320;SDS011;38261;54.090;13.382;2023-01-28T03:06:25;1.10;;;0.50;;
52320;SDS011;38261;54.090;13.382;2023-01-28T03:07:56;2.00;;;0.60;;
52320;SDS011;38261;54.090;13.382;2023-01-28T03:09:19;1.10;;;0.50;;
52320;SDS011;38261;54.090;13.382;2023-01-28T03:10:44;3.30;;;0.60;;
52320;SDS011;38261;54.090;13.382;2023-01-28T03:13:52;3.80;;;0.60;;
52320;SDS011;38261;54.090;13.382;2023-01-28T03:15:43;1.03;;;0.47;;
52320;SDS011;38261;54.090;13.382;2023-01-28T03:19:23;0.60;;;0.50;;
52320;SDS011;38261;54.090;13.382;2023-01-28T03:22:46;1.20;;;0.60;;
52320;SDS011;38261;54.090;13.382;2023-01-28T03:24:34;1.00;;;0.50;;
52320;SDS011;38261;54.090;13.382;2023-01-28T03:26:19;1.13;;;0.50;;
52320;SDS011;38261;54.090;13.382;2023-01-28T03:28:04;2.50;;;0.60;;
52320;SDS011;38261;54.090;13.382;2023-01-28T03:29:47;0.80;;;0.40;;
52320;SDS011;38261;54.090;13.382;2023-01-28T03:31:32;1.53;;;0.50;;
52320;SDS011;38261;54.090;13.382;2023-01-28T03:33:15;1.03;;;0.80;;
52320;SDS011;38261;54.090;13.382;2023-01-28T03:34:56;0.80;;;0.47;;
52320;SDS011;38261;54.090;13.382;2023-01-28T03:36:37;1.10;;;0.50;;
52320;SDS011;38261;54.090;13.382;2023-01-28T03:38:13;0.70;;;0.53;;
52320;SDS011;38261;54.090;13.382;2023-01-28T03:39:43;0.70;;;0.60;;
52320;SDS011;38261;54.090;13.382;2023-01-28T03:41:07;0.87;;;0.50;;
52320;SDS011;38261;54.090;13.382;2023-01-28T03:42:31;1.60;;;0.60;;
52320;SDS011;38261;54.090;13.382;2023-01-28T03:43:53;0.50;;;0.50;;
52320;SDS011;38261;54.090;13.382;2023-01-28T03:45:16;0.97;;;0.77;;
52320;SDS011;38261;54.090;13.382;2023-01-28T03:46:38;0.83;;;0.60;;
52320;SDS011;38261;54.090;13.382;2023-01-28T03:48:00;0.70;;;0.50;;
52320;SDS011;38261;54.090;13.382;2023-01-28T03:49:22;1.13;;;0.50;;
52320;SDS011;38261;54.090;13.382;2023-01-28T03:50:45;1.27;;;0.63;;
52320;SDS011;38261;54.090;13.382;2023-01-28T03:52:08;1.83;;;0.50;;
52320;SDS011;38261;54.090;13.382;2023-01-28T03:53:30;0.70;;;0.50;;
52320;SDS011;38261;54.090;13.382;2023-01-28T03:54:52;1.20;;;0.70;;
52320;SDS011;38261;54.090;13.382;2023-01-28T03:56:14;1.30;;;0.53;;
52320;SDS011;38261;54.090;13.382;2023-01-28T03:57:38;0.80;;;0.57;;
52320;SDS011;38261;54.090;13.382;2023-01-28T03:59:00;1.00;;;0.50;;
52320;SDS011;38261;54.090;13.382;2023-01-28T04:00:23;1.00;;;0.60;;
52320;SDS011;38261;54.090;13.382;2023-01-28T04:01:45;0.60;;;0.60;;
52320;SDS011;38261;54.090;13.382;2023-01-28T04:03:14;0.80;;;0.60;;
52320;SDS011;38261;54.090;13.382;2023-01-28T04:04:38;3.37;;;0.50;;
52320;SDS011;38261;54.090;13.382;2023-01-28T04:06:02;0.60;;;0.50;;
52320;SDS011;38261;54.090;13.382;2023-01-28T04:07:26;4.20;;;0.60;;
52320;SDS011;38261;54.090;13.382;2023-01-28T04:08:48;8.90;;;0.50;;
52320;SDS011;38261;54.090;13.382;2023-01-28T04:10:13;4.57;;;0.63;;
52320;SDS011;38261;54.090;13.382;2023-01-28T04:11:36;0.80;;;0.50;;
52320;SDS011;38261;54.090;13.382;2023-01-28T04:12:58;3.23;;;0.67;;
52320;SDS011;38261;54.090;13.382;2023-01-28T04:14:20;1.97;;;0.50;;
52320;SDS011;38261;54.090;13.382;2023-01-28T04:15:42;1.67;;;0.50;;
52320;SDS011;38261;54.090;13.382;2023-01-28T04:17:06;0.60;;;0.50;;
52320;SDS011;38261;54.090;13.382;2023-01-28T04:18:31;1.17;;;0.70;;
52320;SDS011;38261;54.090;13.382;2023-01-28T04:19:53;0.70;;;0.60;;
52320;SDS011;38261;54.090;13.382;2023-01-28T04:21:15;0.63;;;0.63;;
52320;SDS011;38261;54.090;13.382;2023-01-28T04:22:37;2.00;;;0.70;;
52320;SDS011;38261;54.090;13.382;2023-01-28T04:23:59;2.17;;;0.60;;
52320;SDS011;38261;54.090;13.382;2023-01-28T04:25:22;3.13;;;0.60;;
52320;SDS011;38261;54.090;13.382;2023-01-28T04:26:44;1.10;;;0.73;;
52320;SDS011;38261;54.090;13.382;2023-01-28T04:28:06;0.63;;;0.50;;
52320;SDS011;38261;54.090;13.382;2023-01-28T04:29:28;1.23;;;0.70;;
52320;SDS011;38261;54.090;13.382;2023-01-28T04:30:51;0.93;;;0.60;;
52320;SDS011;38261;54.090;13.382;2023-01-28T04:32:14;0.70;;;0.53;;
52320;SDS011;38261;54.090;13.382;2023-01-28T04:33:36;0.67;;;0.60;;
52320;SDS011;38261;54.090;13.382;2023-01-28T04:34:58;0.60;;;0.60;;
52320;SDS011;38261;54.090;13.382;2023-01-28T04:36:20;0.97;;;0.60;;
52320;SDS011;38261;54.090;13.382;2023-01-28T04:37:42;2.03;;;0.50;;
52320;SDS011;38261;54.090;13.382;2023-01-28T04:39:04;1.40;;;0.50;;
52320;SDS011;38261;54.090;13.382;2023-01-28T04:40:26;0.77;;;0.50;;
52320;SDS011;38261;54.090;13.382;2023-01-28T04:41:48;1.40;;;0.60;;
52320;SDS011;38261;54.090;13.382;2023-01-28T04:43:11;4.67;;;0.60;;
52320;SDS011;38261;54.090;13.382;2023-01-28T04:44:33;2.03;;;0.60;;
52320;SDS011;38261;54.090;13.382;2023-01-28T04:45:55;1.33;;;0.60;;
52320;SDS011;38261;54.090;13.382;2023-01-28T04:47:17;0.77;;;0.50;;
52320;SDS011;38261;54.090;13.382;2023-01-28T04:48:40;0.97;;;0.60;;
52320;SDS011;38261;54.090;13.382;2023-01-28T04:50:02;0.80;;;0.63;;
52320;SDS011;38261;54.090;13.382;2023-01-28T04:51:24;1.53;;;0.70;;
52320;SDS011;38261;54.090;13.382;2023-01-28T04:52:46;1.53;;;0.57;;
52320;SDS011;38261;54.090;13.382;2023-01-28T04:54:08;0.60;;;0.50;;
52320;SDS011;38261;54.090;13.382;2023-01-28T04:55:31;1.57;;;0.50;;
52320;SDS011;38261;54.090;13.382;2023-01-28T04:56:53;0.50;;;0.40;;
52320;SDS011;38261;54.090;13.382;2023-01-28T04:58:16;0.90;;;0.60;;
52320;SDS011;38261;54.090;13.382;2023-01-28T04:59:38;0.73;;;0.60;;
52320;SDS011;38261;54.090;13.382;2023-01-28T05:01:00;0.70;;;0.70;;
52320;SDS011;38261;54.090;13.382;2023-01-28T05:02:22;2.37;;;1.13;;
52320;SDS011;38261;54.090;13.382;2023-01-28T05:03:44;0.70;;;0.53;;
52320;SDS011;38261;54.090;13.382;2023-01-28T05:05:07;1.27;;;0.80;;
52320;SDS011;38261;54.090;13.382;2023-01-28T05:06:29;0.80;;;0.77;;
52320;SDS011;38261;54.090;13.382;2023-01-28T05:07:52;1.63;;;0.90;;
52320;SDS011;38261;54.090;13.382;2023-01-28T05:09:15;1.80;;;0.80;;
52320;SDS011;38261;54.090;13.382;2023-01-28T05:10:37;0.67;;;0.60;;
52320;SDS011;38261;54.090;13.382;2023-01-28T05:12:00;2.20;;;0.60;;
52320;SDS011;38261;54.090;13.382;2023-01-28T05:13:23;0.80;;;0.60;;
52320;SDS011;38261;54.090;13.382;2023-01-28T05:14:45;0.70;;;0.50;;
52320;SDS011;38261;54.090;13.382;2023-01-28T05:16:07;1.10;;;0.47;;
52320;SDS011;38261;54.090;13.382;2023-01-28T05:17:29;0.97;;;0.60;;
52320;SDS011;38261;54.090;13.382;2023-01-28T05:18:52;2.63;;;0.60;;
52320;SDS011;38261;54.090;13.382;2023-01-28T05:20:14;0.97;;;0.70;;
52320;SDS011;38261;54.090;13.382;2023-01-28T05:21:36;2.53;;;0.60;;
52320;SDS011;38261;54.090;13.382;2023-01-28T05:22:58;0.97;;;0.50;;
52320;SDS011;38261;54.090;13.382;2023-01-28T05:24:20;0.60;;;0.50;;
52320;SDS011;38261;54.090;13.382;2023-01-28T05:25:43;0.90;;;0.50;;
52320;SDS011;38261;54.090;13.382;2023-01-28T05:27:05;1.73;;;0.70;;
52320;SDS011;38261;54.090;13.382;2023-01-28T05:28:28;0.97;;;0.60;;
52320;SDS011;38261;54.090;13.382;2023-01-28T05:29:50;4.10;;;0.63;;
52320;SDS011;38261;54.090;13.382;2023-01-28T05:31:12;1.03;;;0.50;;
52320;SDS011;38261;54.090;13.382;2023-01-28T05:32:34;0.60;;;0.50;;
52320;SDS011;38261;54.090;13.382;2023-01-28T05:33:56;1.10;;;0.67;;
52320;SDS011;38261;54.090;13.382;2023-01-28T05:35:18;3.43;;;0.60;;
52320;SDS011;38261;54.090;13.382;2023-01-28T05:36:40;0.90;;;0.60;;
52320;SDS011;38261;54.090;13.382;2023-01-28T05:38:03;1.80;;;0.50;;
52320;SDS011;38261;54.090;13.382;2023-01-28T05:39:26;0.80;;;0.60;;
52320;SDS011;38261;54.090;13.382;2023-01-28T05:40:48;1.37;;;0.67;;
52320;SDS011;38261;54.090;13.382;2023-01-28T05:42:10;1.07;;;0.67;;
52320;SDS011;38261;54.090;13.382;2023-01-28T05:43:32;1.83;;;0.90;;
52320;SDS011;38261;54.090;13.382;2023-01-28T05:44:54;1.27;;;0.60;;
52320;SDS011;38261;54.090;13.382;2023-01-28T05:46:16;1.77;;;0.50;;
52320;SDS011;38261;54.090;13.382;2023-01-28T05:47:38;1.87;;;0.60;;
52320;SDS011;38261;54.090;13.382;2023-01-28T05:49:00;2.30;;;0.70;;
52320;SDS011;38261;54.090;13.382;2023-01-28T05:50:23;1.87;;;0.67;;
52320;SDS011;38261;54.090;13.382;2023-01-28T05:51:45;1.67;;;1.40;;
52320;SDS011;38261;54.090;13.382;2023-01-28T05:53:08;1.70;;;0.60;;
52320;SDS011;38261;54.090;13.382;2023-01-28T05:54:31;1.73;;;0.60;;
52320;SDS011;38261;54.090;13.382;2023-01-28T05:55:53;0.60;;;0.60;;
52320;SDS011;38261;54.090;13.382;2023-01-28T05:57:15;1.10;;;0.70;;
52320;SDS011;38261;54.090;13.382;2023-01-28T05:58:37;1.53;;;0.50;;
52320;SDS011;38261;54.090;13.382;2023-01-28T05:59:59;2.07;;;0.80;;
52320;SDS011;38261;54.090;13.382;2023-01-28T06:01:21;0.77;;;0.70;;
52320;SDS011;38261;54.090;13.382;2023-01-28T06:02:43;1.30;;;0.63;;
52320;SDS011;38261;54.090;13.382;2023-01-28T06:04:05;1.53;;;0.60;;
52320;SDS011;38261;54.090;13.382;2023-01-28T06:05:27;4.40;;;0.60;;
52320;SDS011;38261;54.090;13.382;2023-01-28T06:06:50;0.80;;;0.50;;
52320;SDS011;38261;54.090;13.382;2023-01-28T06:08:12;0.73;;;0.70;;
52320;SDS011;38261;54.090;13.382;2023-01-28T06:09:34;2.13;;;0.60;;
52320;SDS011;38261;54.090;13.382;2023-01-28T06:10:56;3.80;;;0.70;;
52320;SDS011;38261;54.090;13.382;2023-01-28T06:12:18;1.10;;;0.67;;
52320;SDS011;38261;54.090;13.382;2023-01-28T06:13:40;1.10;;;0.70;;
52320;SDS011;38261;54.090;13.382;2023-01-28T06:15:02;2.30;;;0.60;;
52320;SDS011;38261;54.090;13.382;2023-01-28T06:16:24;0.90;;;0.57;;
52320;SDS011;38261;54.090;13.382;2023-01-28T06:17:47;2.03;;;0.70;;
52320;SDS011;38261;54.090;13.382;2023-01-28T06:19:09;2.23;;;0.80;;
52320;SDS011;38261;54.090;13.382;2023-01-28T06:20:31;2.00;;;0.70;;
52320;SDS011;38261;54.090;13.382;2023-01-28T06:21:53;1.47;;;0.60;;
52320;SDS011;38261;54.090;13.382;2023-01-28T06:23:15;2.17;;;0.90;;
52320;SDS011;38261;54.090;13.382;2023-01-28T06:24:37;1.43;;;0.50;;
52320;SDS011;38261;54.090;13.382;2023-01-28T06:26:00;1.33;;;0.60;;
52320;SDS011;38261;54.090;13.382;2023-01-28T06:27:22;1.77;;;0.80;;
52320;SDS011;38261;54.090;13.382;2023-01-28T06:28:44;6.40;;;0.80;;
52320;SDS011;38261;54.090;13.382;2023-01-28T06:30:06;0.80;;;0.70;;
52320;SDS011;38261;54.090;13.382;2023-01-28T06:31:28;1.90;;;0.70;;
52320;SDS011;38261;54.090;13.382;2023-01-28T06:32:54;2.13;;;0.50;;
52320;SDS011;38261;54.090;13.382;2023-01-28T06:34:16;0.60;;;0.50;;
52320;SDS011;38261;54.090;13.382;2023-01-28T06:35:38;0.80;;;0.60;;
52320;SDS011;38261;54.090;13.382;2023-01-28T06:37:01;1.23;;;0.60;;
52320;SDS011;38261;54.090;13.382;2023-01-28T06:38:24;2.70;;;0.63;;
52320;SDS011;38261;54.090;13.382;2023-01-28T06:39:46;3.33;;;0.70;;
52320;SDS011;38261;54.090;13.382;2023-01-28T06:41:08;1.50;;;0.70;;
52320;SDS011;38261;54.090;13.382;2023-01-28T06:42:31;1.47;;;0.67;;
52320;SDS011;38261;54.090;13.382;2023-01-28T06:43:53;1.63;;;0.60;;
52320;SDS011;38261;54.090;13.382;2023-01-28T06:45:15;1.33;;;0.80;;
52320;SDS011;38261;54.090;13.382;2023-01-28T06:46:37;0.90;;;0.77;;
52320;SDS011;38261;54.090;13.382;2023-01-28T06:47:59;2.10;;;0.70;;
52320;SDS011;38261;54.090;13.382;2023-01-28T06:49:21;1.90;;;0.60;;
52320;SDS011;38261;54.090;13.382;2023-01-28T06:50:45;0.80;;;0.63;;
52320;SDS011;38261;54.090;13.382;2023-01-28T06:52:08;2.60;;;0.90;;
52320;SDS011;38261;54.090;13.382;2023-01-28T06:53:30;1.63;;;1.00;;
52320;SDS011;38261;54.090;13.382;2023-01-28T06:54:52;2.07;;;0.70;;
52320;SDS011;38261;54.090;13.382;2023-01-28T06:56:14;1.93;;;1.07;;
52320;SDS011;38261;54.090;13.382;2023-01-28T06:57:37;0.90;;;0.70;;
52320;SDS011;38261;54.090;13.382;2023-01-28T06:58:59;1.90;;;1.00;;
52320;SDS011;38261;54.090;13.382;2023-01-28T07:00:22;1.47;;;0.93;;
52320;SDS011;38261;54.090;13.382;2023-01-28T07:01:44;1.90;;;1.10;;
52320;SDS011;38261;54.090;13.382;2023-01-28T07:03:06;1.43;;;0.90;;
52320;SDS011;38261;54.090;13.382;2023-01-28T07:04:28;1.33;;;0.90;;
52320;SDS011;38261;54.090;13.382;2023-01-28T07:05:51;1.97;;;1.30;;
52320;SDS011;38261;54.090;13.382;2023-01-28T07:07:13;1.33;;;0.90;;
52320;SDS011;38261;54.090;13.382;2023-01-28T07:08:35;0.90;;;0.80;;
52320;SDS011;38261;54.090;13.382;2023-01-28T07:09:58;1.23;;;1.13;;
52320;SDS011;38261;54.090;13.382;2023-01-28T07:11:20;0.97;;;0.87;;
52320;SDS011;38261;54.090;13.382;2023-01-28T07:12:42;1.13;;;0.90;;
52320;SDS011;38261;54.090;13.382;2023-01-28T07:14:06;3.80;;;1.07;;
52320;SDS011;38261;54.090;13.382;2023-01-28T07:15:28;3.20;;;0.93;;
52320;SDS011;38261;54.090;13.382;2023-01-28T07:16:50;1.10;;;0.97;;
52320;SDS011;38261;54.090;13.382;2023-01-28T07:18:13;1.77;;;1.10;;
52320;SDS011;38261;54.090;13.382;2023-01-28T07:19:35;2.37;;;1.67;;
52320;SDS011;38261;54.090;13.382;2023-01-28T07:20:57;5.23;;;1.20;;
52320;SDS011;38261;54.090;13.382;2023-01-28T07:22:19;3.20;;;1.50;;
52320;SDS011;38261;54.090;13.382;2023-01-28T07:23:41;2.30;;;1.00;;
52320;SDS011;38261;54.090;13.382;2023-01-28T07:25:03;3.17;;;1.30;;
52320;SDS011;38261;54.090;13.382;2023-01-28T07:26:26;2.83;;;1.40;;
52320;SDS011;38261;54.090;13.382;2023-01-28T07:27:49;2.20;;;1.40;;
52320;SDS011;38261;54.090;13.382;2023-01-28T07:29:13;2.10;;;1.50;;
52320;SDS011;38261;54.090;13.382;2023-01-28T07:30:35;2.37;;;1.50;;
52320;SDS011;38261;54.090;13.382;2023-01-28T07:31:57;1.20;;;1.00;;
52320;SDS011;38261;54.090;13.382;2023-01-28T07:33:20;1.60;;;1.30;;
52320;SDS011;38261;54.090;13.382;2023-01-28T07:34:42;3.00;;;1.20;;
52320;SDS011;38261;54.090;13.382;2023-01-28T07:36:05;2.10;;;1.73;;
52320;SDS011;38261;54.090;13.382;2023-01-28T07:37:27;5.43;;;1.80;;
52320;SDS011;38261;54.090;13.382;2023-01-28T07:38:49;3.10;;;1.77;;
52320;SDS011;38261;54.090;13.382;2023-01-28T07:40:11;5.77;;;1.97;;
52320;SDS011;38261;54.090;13.382;2023-01-28T07:41:34;3.37;;;1.63;;
52320;SDS011;38261;54.090;13.382;2023-01-28T07:42:56;3.67;;;1.63;;
52320;SDS011;38261;54.090;13.382;2023-01-28T07:44:18;5.60;;;1.90;;
52320;SDS011;38261;54.090;13.382;2023-01-28T07:45:40;3.33;;;1.40;;
52320;SDS011;38261;54.090;13.382;2023-01-28T07:47:02;2.30;;;1.30;;
52320;SDS011;38261;54.090;13.382;2023-01-28T07:48:25;10.10;;;1.53;;
52320;SDS011;38261;54.090;13.382;2023-01-28T07:49:47;2.13;;;1.30;;
52320;SDS011;38261;54.090;13.382;2023-01-28T07:51:09;1.23;;;1.13;;
52320;SDS011;38261;54.090;13.382;2023-01-28T07:52:31;1.10;;;1.00;;
52320;SDS011;38261;54.090;13.382;2023-01-28T07:53:59;1.83;;;1.40;;
52320;SDS011;38261;54.090;13.382;2023-01-28T07:55:21;2.60;;;2.40;;
52320;SDS011;38261;54.090;13.382;2023-01-28T07:56:44;5.13;;;1.73;;
52320;SDS011;38261;54.090;13.382;2023-01-28T07:58:06;2.60;;;1.50;;
52320;SDS011;38261;54.090;13.382;2023-01-28T07:59:31;2.13;;;1.67;;
52320;SDS011;38261;54.090;13.382;2023-01-28T08:00:56;1.87;;;1.43;;
52320;SDS011;38261;54.090;13.382;2023-01-28T08:02:19;3.87;;;2.00;;
52320;SDS011;38261;54.090;13.382;2023-01-28T08:03:41;6.80;;;2.80;;
52320;SDS011;38261;54.090;13.382;2023-01-28T08:05:04;6.63;;;3.13;;
52320;SDS011;38261;54.090;13.382;2023-01-28T08:06:29;5.50;;;3.53;;
52320;SDS011;38261;54.090;13.382;2023-01-28T08:07:51;8.40;;;3.90;;
52320;SDS011;38261;54.090;13.382;2023-01-28T08:09:13;5.17;;;3.40;;
52320;SDS011;38261;54.090;13.382;2023-01-28T08:10:36;6.53;;;2.40;;
52320;SDS011;38261;54.090;13.382;2023-01-28T08:11:58;4.17;;;2.33;;
52320;SDS011;38261;54.090;13.382;2023-01-28T08:13:23;4.57;;;2.80;;
52320;SDS011;38261;54.090;13.382;2023-01-28T08:14:45;5.87;;;3.40;;
52320;SDS011;38261;54.090;13.382;2023-01-28T08:16:07;5.93;;;2.60;;
52320;SDS011;38261;54.090;13.382;2023-01-28T08:17:29;8.73;;;3.10;;
52320;SDS011;38261;54.090;13.382;2023-01-28T08:18:51;9.00;;;5.23;;
52320;SDS011;38261;54.090;13.382;2023-01-28T08:20:13;2.83;;;2.30;;
52320;SDS011;38261;54.090;13.382;2023-01-28T08:21:36;4.80;;;2.13;;
52320;SDS011;38261;54.090;13.382;2023-01-28T08:23:05;3.37;;;1.40;;
52320;SDS011;38261;54.090;13.382;2023-01-28T08:24:32;5.33;;;1.90;;
52320;SDS011;38261;54.090;13.382;2023-01-28T08:25:56;2.67;;;1.90;;
52320;SDS011;38261;54.090;13.382;2023-01-28T08:27:19;1.90;;;1.70;;
52320;SDS011;38261;54.090;13.382;2023-01-28T08:28:41;3.00;;;1.90;;
52320;SDS011;38261;54.090;13.382;2023-01-28T08:30:04;5.03;;;1.80;;
52320;SDS011;38261;54.090;13.382;2023-01-28T08:31:26;4.57;;;1.83;;
52320;SDS011;38261;54.090;13.382;2023-01-28T08:32:50;1.90;;;1.80;;
52320;SDS011;38261;54.090;13.382;2023-01-28T08:34:12;1.80;;;1.70;;
52320;SDS011;38261;54.090;13.382;2023-01-28T08:35:34;4.77;;;1.80;;
52320;SDS011;38261;54.090;13.382;2023-01-28T08:36:56;1.20;;;1.10;;
52320;SDS011;38261;54.090;13.382;2023-01-28T08:38:19;2.27;;;1.43;;
52320;SDS011;38261;54.090;13.382;2023-01-28T08:39:41;3.93;;;1.60;;
52320;SDS011;38261;54.090;13.382;2023-01-28T08:41:06;2.80;;;2.40;;
52320;SDS011;38261;54.090;13.382;2023-01-28T08:42:28;2.40;;;1.77;;
52320;SDS011;38261;54.090;13.382;2023-01-28T08:43:50;2.40;;;1.67;;
52320;SDS011;38261;54.090;13.382;2023-01-28T08:45:12;2.17;;;1.30;;